CN-0001 weather

CLOSED Old Guangzhou Baiyun International Airport
Guangzhou, Guangdong Province, China

Public forecast

Using degrees Celsius for public forecast. Weather courtesy of forecast.io.

Closest aviation weather report (METAR) to Old Guangzhou Baiyun International Airport

Closest report is Guangzhou Baiyun International Airport, 12.6 nm (23.4 km) N. Retrieved 2020/01/25 02:30 UTC (0 seconds ago):

ZGGG 250230Z 06004MPS 9999 SCT016 OVC033 16/12 Q1019 NOSIG

Closest aviation forecast (TAF) to Old Guangzhou Baiyun International Airport

Closest forecast is Guangzhou Baiyun International Airport, 12.6 nm (23.4 km) N. Retrieved 2020-01-25 00:03 UTC (2 hours ago):

TAF ZGGG 242106Z 2500/2524 36005MPS 8000 BKN033 TX21/2507Z TN11/2522Z TEMPO 2512/2518 3500 TSRA SCT011 SCT026CB BKN030